sensor_id;sensor_type;location;lat;lon;timestamp;temperature;humidity
11083;DHT22;5595;50.186;8.468;2023-08-30T00:02:09;12.60;99.90
11083;DHT22;5595;50.186;8.468;2023-08-30T00:04:35;12.70;99.90
11083;DHT22;5595;50.186;8.468;2023-08-30T00:07:02;12.70;99.90
11083;DHT22;5595;50.186;8.468;2023-08-30T00:09:29;12.80;99.90
11083;DHT22;5595;50.186;8.468;2023-08-30T00:11:57;12.80;99.90
11083;DHT22;5595;50.186;8.468;2023-08-30T00:14:24;12.90;99.90
11083;DHT22;5595;50.186;8.468;2023-08-30T00:16:51;12.90;99.90
11083;DHT22;5595;50.186;8.468;2023-08-30T00:19:18;12.90;99.90
11083;DHT22;5595;50.186;8.468;2023-08-30T00:21:45;13.00;99.90
11083;DHT22;5595;50.186;8.468;2023-08-30T00:24:11;13.00;99.90
11083;DHT22;5595;50.186;8.468;2023-08-30T00:26:39;13.00;99.90
11083;DHT22;5595;50.186;8.468;2023-08-30T00:29:07;13.00;99.90
11083;DHT22;5595;50.186;8.468;2023-08-30T00:31:34;13.10;99.90
11083;DHT22;5595;50.186;8.468;2023-08-30T00:34:01;13.10;99.90
11083;DHT22;5595;50.186;8.468;2023-08-30T00:36:27;13.10;99.90
11083;DHT22;5595;50.186;8.468;2023-08-30T00:38:54;13.10;99.90
11083;DHT22;5595;50.186;8.468;2023-08-30T00:41:21;13.10;99.90
11083;DHT22;5595;50.186;8.468;2023-08-30T00:43:48;13.10;99.90
11083;DHT22;5595;50.186;8.468;2023-08-30T00:46:16;13.10;99.90
11083;DHT22;5595;50.186;8.468;2023-08-30T00:48:43;13.20;99.90
11083;DHT22;5595;50.186;8.468;2023-08-30T00:51:11;13.10;99.90
11083;DHT22;5595;50.186;8.468;2023-08-30T00:53:38;13.10;99.90
11083;DHT22;5595;50.186;8.468;2023-08-30T00:56:05;13.10;99.90
11083;DHT22;5595;50.186;8.468;2023-08-30T00:58:32;13.10;99.90
11083;DHT22;5595;50.186;8.468;2023-08-30T01:00:59;13.10;99.90
11083;DHT22;5595;50.186;8.468;2023-08-30T01:03:27;13.20;99.90
11083;DHT22;5595;50.186;8.468;2023-08-30T01:05:54;13.20;99.90
11083;DHT22;5595;50.186;8.468;2023-08-30T01:08:21;13.20;99.90
11083;DHT22;5595;50.186;8.468;2023-08-30T01:10:54;13.20;99.90
11083;DHT22;5595;50.186;8.468;2023-08-30T01:13:21;13.20;99.90
11083;DHT22;5595;50.186;8.468;2023-08-30T01:15:51;13.20;99.90
11083;DHT22;5595;50.186;8.468;2023-08-30T01:18:18;13.10;99.90
11083;DHT22;5595;50.186;8.468;2023-08-30T01:20:48;13.10;99.90
11083;DHT22;5595;50.186;8.468;2023-08-30T01:23:23;13.10;99.90
11083;DHT22;5595;50.186;8.468;2023-08-30T01:25:55;13.10;99.90
11083;DHT22;5595;50.186;8.468;2023-08-30T01:28:27;13.10;99.90
11083;DHT22;5595;50.186;8.468;2023-08-30T01:30:56;13.10;99.90
11083;DHT22;5595;50.186;8.468;2023-08-30T01:33:24;13.10;99.90
11083;DHT22;5595;50.186;8.468;2023-08-30T01:35:53;13.10;99.90
11083;DHT22;5595;50.186;8.468;2023-08-30T01:38:20;13.10;99.90
11083;DHT22;5595;50.186;8.468;2023-08-30T01:40:48;13.10;99.90
11083;DHT22;5595;50.186;8.468;2023-08-30T01:43:16;13.10;99.90
11083;DHT22;5595;50.186;8.468;2023-08-30T01:45:44;13.10;99.90
11083;DHT22;5595;50.186;8.468;2023-08-30T01:48:13;13.10;99.90
11083;DHT22;5595;50.186;8.468;2023-08-30T01:50:41;13.10;99.90
11083;DHT22;5595;50.186;8.468;2023-08-30T01:53:08;13.10;99.90
11083;DHT22;5595;50.186;8.468;2023-08-30T01:55:35;13.10;99.90
11083;DHT22;5595;50.186;8.468;2023-08-30T01:58:05;13.10;99.90
11083;DHT22;5595;50.186;8.468;2023-08-30T02:00:32;13.20;99.90
11083;DHT22;5595;50.186;8.468;2023-08-30T02:03:07;13.20;99.90
11083;DHT22;5595;50.186;8.468;2023-08-30T02:05:35;13.20;99.90
11083;DHT22;5595;50.186;8.468;2023-08-30T02:08:08;13.20;99.90
11083;DHT22;5595;50.186;8.468;2023-08-30T02:10:37;13.20;99.90
11083;DHT22;5595;50.186;8.468;2023-08-30T02:13:07;13.20;99.90
11083;DHT22;5595;50.186;8.468;2023-08-30T02:15:36;13.20;99.90
11083;DHT22;5595;50.186;8.468;2023-08-30T02:18:05;13.20;99.90
11083;DHT22;5595;50.186;8.468;2023-08-30T02:20:32;13.20;99.90
11083;DHT22;5595;50.186;8.468;2023-08-30T02:22:59;13.20;99.90
11083;DHT22;5595;50.186;8.468;2023-08-30T02:25:26;13.20;99.90
11083;DHT22;5595;50.186;8.468;2023-08-30T02:27:53;13.20;99.90
11083;DHT22;5595;50.186;8.468;2023-08-30T02:30:20;13.20;99.90
11083;DHT22;5595;50.186;8.468;2023-08-30T02:32:46;13.20;99.90
11083;DHT22;5595;50.186;8.468;2023-08-30T02:35:14;13.20;99.90
11083;DHT22;5595;50.186;8.468;2023-08-30T02:37:41;13.20;99.90
11083;DHT22;5595;50.186;8.468;2023-08-30T02:40:09;13.20;99.90
11083;DHT22;5595;50.186;8.468;2023-08-30T02:42:36;13.30;99.90
11083;DHT22;5595;50.186;8.468;2023-08-30T02:45:03;13.20;99.90
11083;DHT22;5595;50.186;8.468;2023-08-30T02:47:30;13.20;99.90
11083;DHT22;5595;50.186;8.468;2023-08-30T02:49:57;13.30;99.90
11083;DHT22;5595;50.186;8.468;2023-08-30T02:52:25;13.30;99.90
11083;DHT22;5595;50.186;8.468;2023-08-30T02:54:52;13.20;99.90
11083;DHT22;5595;50.186;8.468;2023-08-30T02:57:19;13.20;99.90
11083;DHT22;5595;50.186;8.468;2023-08-30T02:59:46;13.20;99.90
11083;DHT22;5595;50.186;8.468;2023-08-30T03:02:12;13.20;99.90
11083;DHT22;5595;50.186;8.468;2023-08-30T03:04:39;13.20;99.90
11083;DHT22;5595;50.186;8.468;2023-08-30T03:07:06;13.20;99.90
11083;DHT22;5595;50.186;8.468;2023-08-30T03:09:34;13.20;99.90
11083;DHT22;5595;50.186;8.468;2023-08-30T03:12:01;13.30;99.90
11083;DHT22;5595;50.186;8.468;2023-08-30T03:14:28;13.20;99.90
11083;DHT22;5595;50.186;8.468;2023-08-30T03:16:55;13.20;99.90
11083;DHT22;5595;50.186;8.468;2023-08-30T03:19:22;13.20;99.90
11083;DHT22;5595;50.186;8.468;2023-08-30T03:21:49;13.30;99.90
11083;DHT22;5595;50.186;8.468;2023-08-30T03:24:15;13.30;99.90
11083;DHT22;5595;50.186;8.468;2023-08-30T03:26:44;13.30;99.90
11083;DHT22;5595;50.186;8.468;2023-08-30T03:29:11;13.40;99.90
11083;DHT22;5595;50.186;8.468;2023-08-30T03:31:38;13.30;99.90
11083;DHT22;5595;50.186;8.468;2023-08-30T03:34:04;13.30;99.90
11083;DHT22;5595;50.186;8.468;2023-08-30T03:36:31;13.40;99.90
11083;DHT22;5595;50.186;8.468;2023-08-30T03:38:58;13.40;99.90
11083;DHT22;5595;50.186;8.468;2023-08-30T03:41:25;13.40;99.90
11083;DHT22;5595;50.186;8.468;2023-08-30T03:43:53;13.40;99.90
11083;DHT22;5595;50.186;8.468;2023-08-30T03:46:20;13.40;99.90
11083;DHT22;5595;50.186;8.468;2023-08-30T03:48:46;13.40;99.90
11083;DHT22;5595;50.186;8.468;2023-08-30T03:51:13;13.40;99.90
11083;DHT22;5595;50.186;8.468;2023-08-30T03:53:40;13.40;99.90
11083;DHT22;5595;50.186;8.468;2023-08-30T03:56:07;13.40;99.90
11083;DHT22;5595;50.186;8.468;2023-08-30T03:58:34;13.30;99.90
11083;DHT22;5595;50.186;8.468;2023-08-30T04:01:02;13.30;99.90
11083;DHT22;5595;50.186;8.468;2023-08-30T04:03:28;13.40;99.90
11083;DHT22;5595;50.186;8.468;2023-08-30T04:05:55;13.40;99.90
11083;DHT22;5595;50.186;8.468;2023-08-30T04:08:22;13.30;99.90
11083;DHT22;5595;50.186;8.468;2023-08-30T04:10:52;13.40;99.90
11083;DHT22;5595;50.186;8.468;2023-08-30T04:13:19;13.30;99.90
11083;DHT22;5595;50.186;8.468;2023-08-30T04:15:47;13.30;99.90
11083;DHT22;5595;50.186;8.468;2023-08-30T04:18:15;13.30;99.90
11083;DHT22;5595;50.186;8.468;2023-08-30T04:20:44;13.20;99.90
11083;DHT22;5595;50.186;8.468;2023-08-30T04:23:11;13.20;99.90
11083;DHT22;5595;50.186;8.468;2023-08-30T04:25:37;13.20;99.90
11083;DHT22;5595;50.186;8.468;2023-08-30T04:28:05;13.20;99.90
11083;DHT22;5595;50.186;8.468;2023-08-30T04:30:32;13.10;99.90
11083;DHT22;5595;50.186;8.468;2023-08-30T04:32:59;13.10;99.90
11083;DHT22;5595;50.186;8.468;2023-08-30T04:35:29;13.10;99.90
11083;DHT22;5595;50.186;8.468;2023-08-30T04:37:58;13.00;99.90
11083;DHT22;5595;50.186;8.468;2023-08-30T04:40:24;13.00;99.90
11083;DHT22;5595;50.186;8.468;2023-08-30T04:42:51;13.00;99.90
11083;DHT22;5595;50.186;8.468;2023-08-30T04:45:18;13.00;99.90
11083;DHT22;5595;50.186;8.468;2023-08-30T04:47:45;12.90;99.90
11083;DHT22;5595;50.186;8.468;2023-08-30T04:50:12;12.90;99.90
11083;DHT22;5595;50.186;8.468;2023-08-30T04:52:40;12.90;99.90
11083;DHT22;5595;50.186;8.468;2023-08-30T04:55:08;12.90;99.90
11083;DHT22;5595;50.186;8.468;2023-08-30T04:57:35;12.90;99.90
11083;DHT22;5595;50.186;8.468;2023-08-30T05:00:05;12.90;99.90
11083;DHT22;5595;50.186;8.468;2023-08-30T05:02:32;13.00;99.90
11083;DHT22;5595;50.186;8.468;2023-08-30T05:04:59;12.90;99.90
11083;DHT22;5595;50.186;8.468;2023-08-30T05:07:26;13.00;99.90
11083;DHT22;5595;50.186;8.468;2023-08-30T05:09:54;12.90;99.90
11083;DHT22;5595;50.186;8.468;2023-08-30T05:12:21;13.00;99.90
11083;DHT22;5595;50.186;8.468;2023-08-30T05:14:48;13.00;99.90
11083;DHT22;5595;50.186;8.468;2023-08-30T05:17:15;13.00;99.90
11083;DHT22;5595;50.186;8.468;2023-08-30T05:19:41;13.00;99.90
11083;DHT22;5595;50.186;8.468;2023-08-30T05:22:08;13.10;99.90
11083;DHT22;5595;50.186;8.468;2023-08-30T05:24:35;13.10;99.90
11083;DHT22;5595;50.186;8.468;2023-08-30T05:27:04;13.20;99.90
11083;DHT22;5595;50.186;8.468;2023-08-30T05:29:31;13.20;99.90
11083;DHT22;5595;50.186;8.468;2023-08-30T05:31:57;13.30;99.90
11083;DHT22;5595;50.186;8.468;2023-08-30T05:34:24;13.30;99.90
11083;DHT22;5595;50.186;8.468;2023-08-30T05:36:52;13.40;99.90
11083;DHT22;5595;50.186;8.468;2023-08-30T05:39:19;13.40;99.90
11083;DHT22;5595;50.186;8.468;2023-08-30T05:41:46;13.50;99.90
11083;DHT22;5595;50.186;8.468;2023-08-30T05:44:14;13.50;99.90
11083;DHT22;5595;50.186;8.468;2023-08-30T05:46:41;13.60;99.90
11083;DHT22;5595;50.186;8.468;2023-08-30T05:49:08;13.60;99.90
11083;DHT22;5595;50.186;8.468;2023-08-30T05:51:34;13.60;99.90
11083;DHT22;5595;50.186;8.468;2023-08-30T05:54:01;13.60;99.90
11083;DHT22;5595;50.186;8.468;2023-08-30T05:56:32;13.70;99.90
11083;DHT22;5595;50.186;8.468;2023-08-30T05:58:59;13.70;99.90
11083;DHT22;5595;50.186;8.468;2023-08-30T06:01:27;13.70;99.90
11083;DHT22;5595;50.186;8.468;2023-08-30T06:03:54;13.70;99.90
11083;DHT22;5595;50.186;8.468;2023-08-30T06:06:21;13.70;99.90
11083;DHT22;5595;50.186;8.468;2023-08-30T06:08:48;13.70;99.90
11083;DHT22;5595;50.186;8.468;2023-08-30T06:11:15;13.70;99.90
11083;DHT22;5595;50.186;8.468;2023-08-30T06:13:41;13.80;99.90
11083;DHT22;5595;50.186;8.468;2023-08-30T06:16:08;13.80;99.90
11083;DHT22;5595;50.186;8.468;2023-08-30T06:18:36;13.80;99.90
11083;DHT22;5595;50.186;8.468;2023-08-30T06:21:03;13.80;99.90
11083;DHT22;5595;50.186;8.468;2023-08-30T06:23:30;13.90;99.90
11083;DHT22;5595;50.186;8.468;2023-08-30T06:25:57;14.00;99.90
11083;DHT22;5595;50.186;8.468;2023-08-30T06:28:24;14.10;99.90
11083;DHT22;5595;50.186;8.468;2023-08-30T06:30:51;14.20;99.90
11083;DHT22;5595;50.186;8.468;2023-08-30T06:33:18;14.30;99.90
11083;DHT22;5595;50.186;8.468;2023-08-30T06:35:49;14.30;99.90
11083;DHT22;5595;50.186;8.468;2023-08-30T06:38:18;14.40;99.90
11083;DHT22;5595;50.186;8.468;2023-08-30T06:40:45;14.60;99.90
11083;DHT22;5595;50.186;8.468;2023-08-30T06:43:12;14.70;99.90
11083;DHT22;5595;50.186;8.468;2023-08-30T06:45:41;14.80;99.90
11083;DHT22;5595;50.186;8.468;2023-08-30T06:48:08;14.90;99.90
11083;DHT22;5595;50.186;8.468;2023-08-30T06:50:35;15.00;99.90
11083;DHT22;5595;50.186;8.468;2023-08-30T06:53:03;15.10;99.90
11083;DHT22;5595;50.186;8.468;2023-08-30T06:55:30;15.20;99.90
11083;DHT22;5595;50.186;8.468;2023-08-30T06:57:59;15.30;99.90
11083;DHT22;5595;50.186;8.468;2023-08-30T07:00:26;15.30;99.90
11083;DHT22;5595;50.186;8.468;2023-08-30T07:02:53;15.40;99.90
11083;DHT22;5595;50.186;8.468;2023-08-30T07:05:20;15.60;99.90
11083;DHT22;5595;50.186;8.468;2023-08-30T07:07:46;15.60;99.90
11083;DHT22;5595;50.186;8.468;2023-08-30T07:10:15;15.70;99.90
11083;DHT22;5595;50.186;8.468;2023-08-30T07:12:41;15.80;99.90
11083;DHT22;5595;50.186;8.468;2023-08-30T07:15:09;15.90;99.90
11083;DHT22;5595;50.186;8.468;2023-08-30T07:17:36;16.10;99.90
11083;DHT22;5595;50.186;8.468;2023-08-30T07:20:03;16.10;99.90
11083;DHT22;5595;50.186;8.468;2023-08-30T07:22:31;16.20;99.90
11083;DHT22;5595;50.186;8.468;2023-08-30T07:24:57;16.20;99.90
11083;DHT22;5595;50.186;8.468;2023-08-30T07:27:33;16.30;99.90
11083;DHT22;5595;50.186;8.468;2023-08-30T07:30:00;16.40;99.90
11083;DHT22;5595;50.186;8.468;2023-08-30T07:32:27;16.50;99.90
11083;DHT22;5595;50.186;8.468;2023-08-30T07:34:54;16.60;99.90
11083;DHT22;5595;50.186;8.468;2023-08-30T07:37:21;16.70;99.90
11083;DHT22;5595;50.186;8.468;2023-08-30T07:39:48;16.70;99.90
11083;DHT22;5595;50.186;8.468;2023-08-30T07:42:17;16.80;99.90
11083;DHT22;5595;50.186;8.468;2023-08-30T07:44:45;16.90;99.90
11083;DHT22;5595;50.186;8.468;2023-08-30T07:47:12;16.90;99.90
11083;DHT22;5595;50.186;8.468;2023-08-30T07:49:39;17.00;99.90
11083;DHT22;5595;50.186;8.468;2023-08-30T07:52:06;17.00;99.90
11083;DHT22;5595;50.186;8.468;2023-08-30T07:54:33;17.00;99.90
11083;DHT22;5595;50.186;8.468;2023-08-30T07:57:00;17.00;99.90
11083;DHT22;5595;50.186;8.468;2023-08-30T07:59:28;17.00;99.90
11083;DHT22;5595;50.186;8.468;2023-08-30T08:01:56;16.90;99.90
11083;DHT22;5595;50.186;8.468;2023-08-30T08:04:23;16.80;99.90
11083;DHT22;5595;50.186;8.468;2023-08-30T08:06:49;16.80;99.90
11083;DHT22;5595;50.186;8.468;2023-08-30T08:09:16;16.80;99.90
11083;DHT22;5595;50.186;8.468;2023-08-30T08:11:43;16.90;99.90
11083;DHT22;5595;50.186;8.468;2023-08-30T08:14:11;16.90;99.90
11083;DHT22;5595;50.186;8.468;2023-08-30T08:16:38;16.80;99.90
11083;DHT22;5595;50.186;8.468;2023-08-30T08:19:06;16.70;99.90
11083;DHT22;5595;50.186;8.468;2023-08-30T08:21:33;16.80;99.90
11083;DHT22;5595;50.186;8.468;2023-08-30T08:24:00;16.70;99.90
11083;DHT22;5595;50.186;8.468;2023-08-30T08:26:27;16.80;99.90
11083;DHT22;5595;50.186;8.468;2023-08-30T08:28:54;16.80;99.90
11083;DHT22;5595;50.186;8.468;2023-08-30T08:31:21;16.90;99.90
11083;DHT22;5595;50.186;8.468;2023-08-30T08:33:51;17.00;99.90
11083;DHT22;5595;50.186;8.468;2023-08-30T08:36:19;17.20;99.90
11083;DHT22;5595;50.186;8.468;2023-08-30T08:38:46;17.30;99.90
11083;DHT22;5595;50.186;8.468;2023-08-30T08:41:15;17.40;99.90
11083;DHT22;5595;50.186;8.468;2023-08-30T08:43:43;17.50;99.90
11083;DHT22;5595;50.186;8.468;2023-08-30T08:46:11;17.70;99.90
11083;DHT22;5595;50.186;8.468;2023-08-30T08:48:41;17.80;99.90
11083;DHT22;5595;50.186;8.468;2023-08-30T08:51:07;17.90;99.90
11083;DHT22;5595;50.186;8.468;2023-08-30T08:53:36;17.90;99.90
11083;DHT22;5595;50.186;8.468;2023-08-30T08:56:04;18.00;99.90
11083;DHT22;5595;50.186;8.468;2023-08-30T08:58:32;18.20;99.90
11083;DHT22;5595;50.186;8.468;2023-08-30T09:00:59;18.30;99.90
11083;DHT22;5595;50.186;8.468;2023-08-30T09:03:26;18.40;99.90
11083;DHT22;5595;50.186;8.468;2023-08-30T09:05:53;18.40;99.90
11083;DHT22;5595;50.186;8.468;2023-08-30T09:08:21;18.50;99.90
11083;DHT22;5595;50.186;8.468;2023-08-30T09:10:49;18.60;99.90
11083;DHT22;5595;50.186;8.468;2023-08-30T09:13:17;18.90;99.90
11083;DHT22;5595;50.186;8.468;2023-08-30T09:15:46;19.00;99.90
11083;DHT22;5595;50.186;8.468;2023-08-30T09:18:15;19.00;99.90
11083;DHT22;5595;50.186;8.468;2023-08-30T09:20:42;19.00;99.90
11083;DHT22;5595;50.186;8.468;2023-08-30T09:23:16;19.00;99.90
11083;DHT22;5595;50.186;8.468;2023-08-30T09:25:44;19.00;99.90
11083;DHT22;5595;50.186;8.468;2023-08-30T09:28:13;19.20;99.90
11083;DHT22;5595;50.186;8.468;2023-08-30T09:30:40;19.10;99.90
11083;DHT22;5595;50.186;8.468;2023-08-30T09:33:06;19.20;99.90
11083;DHT22;5595;50.186;8.468;2023-08-30T09:35:43;19.30;99.90
11083;DHT22;5595;50.186;8.468;2023-08-30T09:38:16;19.20;99.90
11083;DHT22;5595;50.186;8.468;2023-08-30T09:40:44;19.30;99.90
11083;DHT22;5595;50.186;8.468;2023-08-30T09:43:13;19.30;99.90
11083;DHT22;5595;50.186;8.468;2023-08-30T09:45:40;19.40;99.90
11083;DHT22;5595;50.186;8.468;2023-08-30T09:48:08;19.60;99.90
11083;DHT22;5595;50.186;8.468;2023-08-30T09:50:35;19.70;99.90
11083;DHT22;5595;50.186;8.468;2023-08-30T09:53:06;20.00;99.90
11083;DHT22;5595;50.186;8.468;2023-08-30T09:55:33;20.30;99.90
11083;DHT22;5595;50.186;8.468;2023-08-30T09:58:02;20.30;99.90
11083;DHT22;5595;50.186;8.468;2023-08-30T10:00:31;20.40;99.90
11083;DHT22;5595;50.186;8.468;2023-08-30T10:02:59;20.60;99.90
11083;DHT22;5595;50.186;8.468;2023-08-30T10:05:27;20.60;99.90
11083;DHT22;5595;50.186;8.468;2023-08-30T10:07:54;20.60;99.90
11083;DHT22;5595;50.186;8.468;2023-08-30T10:10:22;20.80;99.90
11083;DHT22;5595;50.186;8.468;2023-08-30T10:12:50;20.70;99.90
11083;DHT22;5595;50.186;8.468;2023-08-30T10:15:17;20.70;99.90
11083;DHT22;5595;50.186;8.468;2023-08-30T10:17:47;21.00;99.90
11083;DHT22;5595;50.186;8.468;2023-08-30T10:20:15;21.00;99.90
11083;DHT22;5595;50.186;8.468;2023-08-30T10:22:43;20.90;99.90
11083;DHT22;5595;50.186;8.468;2023-08-30T10:25:13;20.80;99.90
11083;DHT22;5595;50.186;8.468;2023-08-30T10:27:46;20.70;99.90
11083;DHT22;5595;50.186;8.468;2023-08-30T10:30:15;20.40;99.90
11083;DHT22;5595;50.186;8.468;2023-08-30T10:32:43;20.30;99.90
11083;DHT22;5595;50.186;8.468;2023-08-30T10:35:13;20.30;99.90
11083;DHT22;5595;50.186;8.468;2023-08-30T10:37:41;20.10;99.90
11083;DHT22;5595;50.186;8.468;2023-08-30T10:40:08;20.20;99.90
11083;DHT22;5595;50.186;8.468;2023-08-30T10:42:35;20.10;99.90
11083;DHT22;5595;50.186;8.468;2023-08-30T10:45:05;20.00;99.90
11083;DHT22;5595;50.186;8.468;2023-08-30T10:47:34;19.90;99.90
11083;DHT22;5595;50.186;8.468;2023-08-30T10:50:05;20.00;99.90
11083;DHT22;5595;50.186;8.468;2023-08-30T10:52:35;20.10;99.90
11083;DHT22;5595;50.186;8.468;2023-08-30T10:55:05;20.00;99.90
11083;DHT22;5595;50.186;8.468;2023-08-30T10:57:32;20.00;99.90
11083;DHT22;5595;50.186;8.468;2023-08-30T11:00:08;19.90;99.90
11083;DHT22;5595;50.186;8.468;2023-08-30T11:02:36;19.80;99.90
11083;DHT22;5595;50.186;8.468;2023-08-30T11:05:05;19.60;99.90
11083;DHT22;5595;50.186;8.468;2023-08-30T11:07:34;19.40;99.90
11083;DHT22;5595;50.186;8.468;2023-08-30T11:10:01;19.20;99.90
11083;DHT22;5595;50.186;8.468;2023-08-30T11:12:30;19.20;99.90
11083;DHT22;5595;50.186;8.468;2023-08-30T11:14:57;19.30;99.90
11083;DHT22;5595;50.186;8.468;2023-08-30T11:17:26;19.50;99.90
11083;DHT22;5595;50.186;8.468;2023-08-30T11:19:58;19.70;99.90
11083;DHT22;5595;50.186;8.468;2023-08-30T11:22:32;20.00;99.90
11083;DHT22;5595;50.186;8.468;2023-08-30T11:25:00;20.10;99.90
11083;DHT22;5595;50.186;8.468;2023-08-30T11:27:28;20.40;99.90
11083;DHT22;5595;50.186;8.468;2023-08-30T11:29:59;20.90;99.90
11083;DHT22;5595;50.186;8.468;2023-08-30T11:32:26;21.40;99.90
11083;DHT22;5595;50.186;8.468;2023-08-30T11:34:57;21.90;99.90
11083;DHT22;5595;50.186;8.468;2023-08-30T11:37:26;22.30;99.90
11083;DHT22;5595;50.186;8.468;2023-08-30T11:39:54;22.50;99.90
11083;DHT22;5595;50.186;8.468;2023-08-30T11:42:22;22.50;99.90
11083;DHT22;5595;50.186;8.468;2023-08-30T11:44:50;22.50;99.90
11083;DHT22;5595;50.186;8.468;2023-08-30T11:47:20;22.50;99.90
11083;DHT22;5595;50.186;8.468;2023-08-30T11:49:48;22.40;99.90
11083;DHT22;5595;50.186;8.468;2023-08-30T11:52:16;22.60;99.90
11083;DHT22;5595;50.186;8.468;2023-08-30T11:54:43;22.50;99.90
11083;DHT22;5595;50.186;8.468;2023-08-30T11:57:11;22.20;99.90
11083;DHT22;5595;50.186;8.468;2023-08-30T11:59:39;22.00;99.90
11083;DHT22;5595;50.186;8.468;2023-08-30T12:02:07;21.80;99.90
11083;DHT22;5595;50.186;8.468;2023-08-30T12:04:40;21.60;99.90
11083;DHT22;5595;50.186;8.468;2023-08-30T12:07:07;21.40;99.90
11083;DHT22;5595;50.186;8.468;2023-08-30T12:09:34;21.20;99.90
11083;DHT22;5595;50.186;8.468;2023-08-30T12:12:09;21.10;99.90
11083;DHT22;5595;50.186;8.468;2023-08-30T12:14:38;20.90;99.90
11083;DHT22;5595;50.186;8.468;2023-08-30T12:17:05;20.80;99.90
11083;DHT22;5595;50.186;8.468;2023-08-30T12:19:34;20.60;99.90
11083;DHT22;5595;50.186;8.468;2023-08-30T12:22:04;20.50;99.90
11083;DHT22;5595;50.186;8.468;2023-08-30T12:24:42;20.40;99.90
11083;DHT22;5595;50.186;8.468;2023-08-30T12:27:09;20.30;99.90
11083;DHT22;5595;50.186;8.468;2023-08-30T12:29:36;20.30;99.90
11083;DHT22;5595;50.186;8.468;2023-08-30T12:32:05;20.30;99.90
11083;DHT22;5595;50.186;8.468;2023-08-30T12:34:32;20.30;99.90
11083;DHT22;5595;50.186;8.468;2023-08-30T12:36:58;20.30;99.90
11083;DHT22;5595;50.186;8.468;2023-08-30T12:39:27;20.30;99.90
11083;DHT22;5595;50.186;8.468;2023-08-30T12:41:54;20.50;99.90
11083;DHT22;5595;50.186;8.468;2023-08-30T12:44:21;20.70;99.90
11083;DHT22;5595;50.186;8.468;2023-08-30T12:46:48;20.80;99.90
11083;DHT22;5595;50.186;8.468;2023-08-30T12:49:16;20.90;99.90
11083;DHT22;5595;50.186;8.468;2023-08-30T12:51:43;21.00;99.90
11083;DHT22;5595;50.186;8.468;2023-08-30T12:54:10;21.30;99.90
11083;DHT22;5595;50.186;8.468;2023-08-30T12:56:36;21.60;99.90
11083;DHT22;5595;50.186;8.468;2023-08-30T12:59:03;21.80;99.90
11083;DHT22;5595;50.186;8.468;2023-08-30T13:01:30;21.80;99.90
11083;DHT22;5595;50.186;8.468;2023-08-30T13:03:57;21.80;99.90
11083;DHT22;5595;50.186;8.468;2023-08-30T13:06:25;22.00;99.90
11083;DHT22;5595;50.186;8.468;2023-08-30T13:08:52;22.10;99.90
11083;DHT22;5595;50.186;8.468;2023-08-30T13:11:19;22.10;99.90
11083;DHT22;5595;50.186;8.468;2023-08-30T13:13:45;22.10;99.90
11083;DHT22;5595;50.186;8.468;2023-08-30T13:16:12;22.00;99.90
11083;DHT22;5595;50.186;8.468;2023-08-30T13:18:39;21.90;99.90
11083;DHT22;5595;50.186;8.468;2023-08-30T13:21:06;21.80;99.90
11083;DHT22;5595;50.186;8.468;2023-08-30T13:23:34;21.70;99.90
11083;DHT22;5595;50.186;8.468;2023-08-30T13:26:01;21.70;99.90
11083;DHT22;5595;50.186;8.468;2023-08-30T13:28:29;21.70;99.90
11083;DHT22;5595;50.186;8.468;2023-08-30T13:30:56;21.60;99.90
11083;DHT22;5595;50.186;8.468;2023-08-30T13:33:23;21.60;99.90
11083;DHT22;5595;50.186;8.468;2023-08-30T13:35:50;21.50;99.90
11083;DHT22;5595;50.186;8.468;2023-08-30T13:38:17;21.30;99.90
11083;DHT22;5595;50.186;8.468;2023-08-30T13:40:45;21.20;99.90
11083;DHT22;5595;50.186;8.468;2023-08-30T13:43:12;21.00;99.90
11083;DHT22;5595;50.186;8.468;2023-08-30T13:45:39;21.10;99.90
11083;DHT22;5595;50.186;8.468;2023-08-30T13:48:06;21.20;99.90
11083;DHT22;5595;50.186;8.468;2023-08-30T13:50:33;21.20;99.90
11083;DHT22;5595;50.186;8.468;2023-08-30T13:52:59;21.20;99.90
11083;DHT22;5595;50.186;8.468;2023-08-30T13:55:27;21.10;99.90
11083;DHT22;5595;50.186;8.468;2023-08-30T13:57:55;21.00;99.90
11083;DHT22;5595;50.186;8.468;2023-08-30T14:00:24;20.80;99.90
11083;DHT22;5595;50.186;8.468;2023-08-30T14:02:51;20.90;99.90
11083;DHT22;5595;50.186;8.468;2023-08-30T14:05:18;20.90;99.90
11083;DHT22;5595;50.186;8.468;2023-08-30T14:07:44;21.00;99.90
11083;DHT22;5595;50.186;8.468;2023-08-30T14:10:11;21.00;99.90
11083;DHT22;5595;50.186;8.468;2023-08-30T14:12:43;21.00;99.90
11083;DHT22;5595;50.186;8.468;2023-08-30T14:15:11;21.00;99.90
11083;DHT22;5595;50.186;8.468;2023-08-30T14:17:38;21.10;99.90
11083;DHT22;5595;50.186;8.468;2023-08-30T14:20:06;21.30;99.90
11083;DHT22;5595;50.186;8.468;2023-08-30T14:22:33;21.50;99.90
11083;DHT22;5595;50.186;8.468;2023-08-30T14:25:01;21.60;99.90
11083;DHT22;5595;50.186;8.468;2023-08-30T14:27:28;21.70;99.90
11083;DHT22;5595;50.186;8.468;2023-08-30T14:29:55;21.80;99.90
11083;DHT22;5595;50.186;8.468;2023-08-30T14:32:23;21.80;99.90
11083;DHT22;5595;50.186;8.468;2023-08-30T14:34:53;21.80;99.90
11083;DHT22;5595;50.186;8.468;2023-08-30T14:37:20;21.80;99.90
11083;DHT22;5595;50.186;8.468;2023-08-30T14:39:47;21.80;99.90
11083;DHT22;5595;50.186;8.468;2023-08-30T14:42:13;21.70;99.90
11083;DHT22;5595;50.186;8.468;2023-08-30T14:44:43;21.70;99.90
11083;DHT22;5595;50.186;8.468;2023-08-30T14:47:10;21.50;99.90
11083;DHT22;5595;50.186;8.468;2023-08-30T14:49:38;21.40;99.90
11083;DHT22;5595;50.186;8.468;2023-08-30T14:52:04;21.30;99.90
11083;DHT22;5595;50.186;8.468;2023-08-30T14:54:31;21.20;99.90
11083;DHT22;5595;50.186;8.468;2023-08-30T14:56:58;21.10;99.90
11083;DHT22;5595;50.186;8.468;2023-08-30T14:59:25;21.00;99.90
11083;DHT22;5595;50.186;8.468;2023-08-30T15:01:52;21.00;99.90
11083;DHT22;5595;50.186;8.468;2023-08-30T15:04:19;21.10;99.90
11083;DHT22;5595;50.186;8.468;2023-08-30T15:06:48;21.10;99.90
11083;DHT22;5595;50.186;8.468;2023-08-30T15:09:14;21.30;99.90
11083;DHT22;5595;50.186;8.468;2023-08-30T15:11:42;21.30;99.90
11083;DHT22;5595;50.186;8.468;2023-08-30T15:14:09;21.20;99.90
11083;DHT22;5595;50.186;8.468;2023-08-30T15:16:36;21.00;99.90
11083;DHT22;5595;50.186;8.468;2023-08-30T15:19:03;20.90;99.90
11083;DHT22;5595;50.186;8.468;2023-08-30T15:21:30;20.90;99.90
11083;DHT22;5595;50.186;8.468;2023-08-30T15:23:58;20.80;99.90
11083;DHT22;5595;50.186;8.468;2023-08-30T15:26:25;20.80;99.90
11083;DHT22;5595;50.186;8.468;2023-08-30T15:28:52;20.80;99.90
11083;DHT22;5595;50.186;8.468;2023-08-30T15:31:18;20.90;99.90
11083;DHT22;5595;50.186;8.468;2023-08-30T15:33:45;20.90;99.90
11083;DHT22;5595;50.186;8.468;2023-08-30T15:36:13;21.00;99.90
11083;DHT22;5595;50.186;8.468;2023-08-30T15:38:39;21.00;99.90
11083;DHT22;5595;50.186;8.468;2023-08-30T15:41:12;21.00;99.90
11083;DHT22;5595;50.186;8.468;2023-08-30T15:43:39;20.70;99.90
11083;DHT22;5595;50.186;8.468;2023-08-30T15:46:06;20.50;99.90
11083;DHT22;5595;50.186;8.468;2023-08-30T15:48:33;20.30;99.90